EFVA

Vaasa Airport

Vaasa, Finland
TAF EFVA 181737Z 1818/1918 26004KT 9999 SCT010 BKN015 TEMPO 1818/1909 BKN005 TEMPO 1909/1915 1500 SN BKN008
Issued Valid From Valid To
Jan-18 @ 17:37 UTC
(3 hours ago)
Jan-18 @ 18:00 UTC
(3 hours ago)
Jan-19 @ 18:00 UTC
(in 21 hours)
Jan-18 @ 18:00 to Jan-19 @ 18:00
TAF EFVA 181737Z 1818/1918 26004KT 9999 SCT010 BKN015
Wind Visibility Clouds
260° at 4 knots 10,000+ meters
  • Scattered at 1,000' AGL
  • Broken at 1,500' AGL
Temporary Jan-18 @ 18:00 to Jan-19 @ 09:00
TEMPO 1818/1909 BKN005
Clouds
  • Broken at 500' AGL
Temporary Jan-19 @ 09:00 to Jan-19 @ 15:00
TEMPO 1909/1915 1500 SN BKN008
Visibility Clouds Conditions
1,497 meters
  • Broken at 800' AGL
  • Snow
TAF EFVA 181737Z 1818/1918 26004KT 9999 SCT010 BKN015 TEMPO 1818/1909 BKN005 TEMPO 1909/1915 1500 SN BKN008
Issued Jan-18 @ 17:37 UTC
(3 hours ago)
Valid From Jan-18 @ 18:00 UTC
(3 hours ago)
Valid To Jan-19 @ 18:00 UTC
(in 21 hours)
Jan-18 @ 18:00 - Jan-19 @ 18:00
Wind Visibility
260° at 4 knots 10,000+ meters
Clouds
  • Scattered at 1,000' AGL
  • Broken at 1,500' AGL
Temporary Jan-18 @ 18:00 - Jan-19 @ 09:00
Clouds
  • Broken at 500' AGL
Temporary Jan-19 @ 09:00 - Jan-19 @ 15:00
Clouds
  • Broken at 800' AGL
Conditions
  • Snow